createdAt,value
2022-10-30T00:02:47.987Z,8.30
2022-10-30T00:05:53.307Z,10.60
2022-10-30T00:08:57.517Z,9.47
2022-10-30T00:12:02.115Z,10.60
2022-10-30T00:15:09.116Z,9.40
2022-10-30T00:18:13.483Z,8.83
2022-10-30T00:21:18.662Z,8.57
2022-10-30T00:24:22.664Z,9.30
2022-10-30T00:27:26.816Z,8.40
2022-10-30T00:30:32.415Z,8.43
2022-10-30T00:33:36.634Z,8.70
2022-10-30T00:36:41.497Z,8.37
2022-10-30T00:39:45.593Z,8.03
2022-10-30T00:42:49.712Z,7.87
2022-10-30T00:45:55.578Z,8.17
2022-10-30T00:49:04.878Z,8.63
2022-10-30T00:52:12.093Z,8.67
2022-10-30T00:55:21.404Z,7.63
2022-10-30T00:58:31.294Z,8.17
2022-10-30T01:01:40.601Z,8.00
2022-10-30T01:04:46.533Z,6.83
2022-10-30T01:07:50.687Z,7.70
2022-10-30T01:10:54.882Z,7.97
2022-10-30T01:14:02.176Z,8.00
2022-10-30T01:17:31.851Z,7.27
2022-10-30T01:20:55.722Z,7.30
2022-10-30T01:24:20.306Z,6.47
2022-10-30T01:27:37.700Z,7.17
2022-10-30T01:30:59.256Z,6.20
2022-10-30T01:34:18.912Z,5.87
2022-10-30T01:37:30.393Z,6.60
2022-10-30T01:40:35.280Z,6.37
2022-10-30T01:43:41.068Z,5.80
2022-10-30T01:47:01.234Z,6.33
2022-10-30T01:50:23.382Z,5.73
2022-10-30T01:53:42.682Z,5.30
2022-10-30T01:56:56.811Z,5.07
2022-10-30T02:00:06.220Z,5.87
2022-10-30T02:03:17.365Z,5.73
2022-10-30T02:06:24.141Z,14.83
2022-10-30T02:09:28.533Z,16.47
2022-10-30T02:12:33.586Z,16.60
2022-10-30T02:15:38.595Z,14.67
2022-10-30T02:18:43.105Z,13.57
2022-10-30T02:21:48.903Z,11.53
2022-10-30T02:24:53.285Z,9.00
2022-10-30T02:28:01.217Z,8.77
2022-10-30T02:31:08.268Z,8.50
2022-10-30T02:34:12.552Z,7.30
2022-10-30T02:37:18.287Z,7.93
2022-10-30T02:40:22.434Z,7.23
2022-10-30T02:43:26.724Z,6.50
2022-10-30T02:46:30.894Z,6.50
2022-10-30T02:49:35.086Z,6.87
2022-10-30T02:52:40.520Z,7.67
2022-10-30T02:55:45.966Z,7.40
2022-10-30T02:58:50.121Z,7.43
2022-10-30T03:01:55.635Z,7.40
2022-10-30T03:04:59.756Z,6.90
2022-10-30T03:08:05.663Z,7.50
2022-10-30T03:11:11.607Z,7.37
2022-10-30T03:14:15.794Z,7.07
2022-10-30T03:17:20.534Z,7.07
2022-10-30T03:20:26.200Z,6.90
2022-10-30T03:23:32.087Z,6.37
2022-10-30T03:26:38.094Z,6.40
2022-10-30T03:29:44.007Z,6.40
2022-10-30T03:32:49.623Z,7.00
2022-10-30T03:35:54.186Z,8.13
2022-10-30T03:38:59.736Z,7.70
2022-10-30T03:42:04.789Z,6.90
2022-10-30T03:45:10.196Z,7.43
2022-10-30T03:48:14.448Z,7.20
2022-10-30T03:51:19.327Z,7.67
2022-10-30T03:54:25.720Z,6.83
2022-10-30T03:57:30.071Z,7.13
2022-10-30T04:00:45.594Z,6.60
2022-10-30T04:03:50.020Z,7.03
2022-10-30T04:06:54.824Z,6.80
2022-10-30T04:10:01.412Z,6.70
2022-10-30T04:13:08.952Z,6.20
2022-10-30T04:16:17.468Z,5.67
2022-10-30T04:19:22.843Z,5.43
2022-10-30T04:22:27.319Z,5.93
2022-10-30T04:25:35.521Z,6.57
2022-10-30T04:28:39.673Z,6.27
2022-10-30T04:31:44.943Z,6.10
2022-10-30T04:34:51.173Z,5.87
2022-10-30T04:37:55.873Z,6.33
2022-10-30T04:41:01.468Z,5.57
2022-10-30T04:44:21.033Z,5.50
2022-10-30T04:47:25.388Z,5.53
2022-10-30T04:50:29.912Z,4.90
2022-10-30T04:53:34.367Z,5.67
2022-10-30T04:56:44.671Z,5.30
2022-10-30T04:59:49.234Z,5.13
2022-10-30T05:02:53.524Z,5.20
2022-10-30T05:06:00.724Z,5.80
2022-10-30T05:09:05.694Z,5.37
2022-10-30T05:12:19.738Z,5.97
2022-10-30T05:15:30.692Z,5.90
2022-10-30T05:18:35.371Z,5.67
2022-10-30T05:21:39.720Z,5.77
2022-10-30T05:24:43.791Z,5.80
2022-10-30T05:27:49.692Z,5.43
2022-10-30T05:30:56.174Z,5.50
2022-10-30T05:34:26.949Z,5.00
2022-10-30T05:37:35.105Z,5.90
2022-10-30T05:40:42.024Z,5.60
2022-10-30T05:43:48.431Z,5.33
2022-10-30T05:46:52.842Z,6.03
2022-10-30T05:50:11.868Z,4.63
2022-10-30T05:53:23.674Z,4.53
2022-10-30T05:56:29.332Z,5.03
2022-10-30T05:59:36.403Z,6.93
2022-10-30T06:02:40.883Z,6.47
2022-10-30T06:05:47.640Z,7.17
2022-10-30T06:08:52.639Z,6.63
2022-10-30T06:12:19.240Z,8.20
2022-10-30T06:15:45.212Z,7.13
2022-10-30T06:18:49.533Z,7.77
2022-10-30T06:21:55.171Z,6.87
2022-10-30T06:25:10.910Z,6.73
2022-10-30T06:28:38.440Z,7.67
2022-10-30T06:31:44.274Z,7.80
2022-10-30T06:34:49.669Z,9.70
2022-10-30T06:37:56.589Z,8.57
2022-10-30T06:41:01.784Z,8.33
2022-10-30T06:44:26.263Z,6.37
2022-10-30T06:47:36.712Z,5.93
2022-10-30T06:50:40.968Z,6.30
2022-10-30T06:53:45.500Z,5.53
2022-10-30T06:57:08.163Z,5.30
2022-10-30T07:00:30.575Z,5.10
2022-10-30T07:03:54.613Z,4.40
2022-10-30T07:07:00.269Z,5.53
2022-10-30T07:10:05.464Z,5.77
2022-10-30T07:13:29.962Z,5.40
2022-10-30T07:16:42.169Z,7.00
2022-10-30T07:19:51.173Z,6.37
2022-10-30T07:22:55.749Z,8.00
2022-10-30T07:26:04.180Z,7.40
2022-10-30T07:29:14.880Z,6.70
2022-10-30T07:32:20.850Z,7.13
2022-10-30T07:35:44.901Z,6.73
2022-10-30T07:39:07.308Z,6.63
2022-10-30T07:42:34.897Z,6.37
2022-10-30T07:45:58.020Z,6.10
2022-10-30T07:49:29.610Z,6.17
2022-10-30T07:52:43.908Z,6.30
2022-10-30T07:55:48.240Z,6.70
2022-10-30T07:59:24.879Z,6.17
2022-10-30T08:02:36.448Z,6.37
2022-10-30T08:05:56.642Z,6.07
2022-10-30T08:09:12.483Z,4.93
2022-10-30T08:12:17.621Z,5.30
2022-10-30T08:15:22.540Z,4.97
2022-10-30T08:18:27.390Z,5.30
2022-10-30T08:21:31.823Z,5.57
2022-10-30T08:24:42.337Z,4.90
2022-10-30T08:27:57.130Z,5.27
2022-10-30T08:31:04.333Z,6.00
2022-10-30T08:34:28.400Z,5.40
2022-10-30T08:37:33.572Z,5.03
2022-10-30T08:40:39.178Z,4.93
2022-10-30T08:43:44.594Z,3.92
2022-10-30T08:46:48.867Z,4.22
2022-10-30T08:49:55.469Z,3.80
2022-10-30T08:53:04.611Z,4.35
2022-10-30T08:56:12.125Z,3.42
2022-10-30T08:59:36.539Z,4.35
2022-10-30T09:02:41.609Z,3.80
2022-10-30T09:06:04.018Z,3.80
2022-10-30T09:09:26.509Z,3.83
2022-10-30T09:12:35.837Z,3.90
2022-10-30T09:15:39.945Z,5.00
2022-10-30T09:18:44.345Z,3.80
2022-10-30T09:21:49.196Z,3.92
2022-10-30T09:24:53.899Z,3.78
2022-10-30T09:28:19.545Z,3.53
2022-10-30T09:31:55.840Z,3.10
2022-10-30T09:35:02.380Z,2.97
2022-10-30T09:38:17.646Z,2.80
2022-10-30T09:41:41.058Z,3.60
2022-10-30T09:45:23.344Z,3.50
2022-10-30T09:48:37.920Z,3.30
2022-10-30T09:52:23.700Z,3.63
2022-10-30T09:55:36.395Z,2.97
2022-10-30T09:58:48.826Z,2.83
2022-10-30T10:02:03.003Z,3.70
2022-10-30T10:05:17.277Z,3.53
2022-10-30T10:08:34.137Z,3.53
2022-10-30T10:12:00.698Z,4.05
2022-10-30T10:15:13.245Z,4.20
2022-10-30T10:18:24.852Z,4.20
2022-10-30T10:21:31.008Z,4.40
2022-10-30T10:24:38.598Z,4.13
2022-10-30T10:27:55.569Z,5.32
2022-10-30T10:31:12.620Z,5.65
2022-10-30T10:34:37.638Z,5.22
2022-10-30T10:37:50.814Z,4.80
2022-10-30T10:41:01.308Z,5.28
2022-10-30T10:44:27.318Z,7.07
2022-10-30T10:47:51.038Z,8.27
2022-10-30T10:51:00.432Z,8.55
2022-10-30T10:54:12.169Z,8.30
2022-10-30T10:57:26.067Z,6.70
2022-10-30T11:00:32.258Z,6.03
2022-10-30T11:03:47.485Z,4.80
2022-10-30T11:06:56.028Z,3.55
2022-10-30T11:10:00.945Z,7.55
2022-10-30T11:13:05.195Z,3.47
2022-10-30T11:16:20.345Z,3.50
2022-10-30T11:19:25.287Z,2.97
2022-10-30T11:22:36.176Z,2.60
2022-10-30T11:25:40.855Z,2.75
2022-10-30T11:28:50.514Z,7.85
2022-10-30T11:32:03.478Z,2.60
2022-10-30T11:35:14.925Z,2.22
2022-10-30T11:38:22.539Z,4.22
2022-10-30T11:41:28.008Z,2.40
2022-10-30T11:44:36.663Z,2.30
2022-10-30T11:47:41.182Z,2.20
2022-10-30T11:50:51.330Z,2.28
2022-10-30T11:53:57.109Z,2.25
2022-10-30T11:57:01.139Z,2.30
2022-10-30T12:00:09.975Z,2.00
2022-10-30T12:03:31.148Z,2.28
2022-10-30T12:06:35.480Z,2.20
2022-10-30T12:09:50.134Z,2.10
2022-10-30T12:12:54.465Z,2.20
2022-10-30T12:16:14.679Z,2.20
2022-10-30T12:19:21.435Z,2.33
2022-10-30T12:22:29.063Z,2.17
2022-10-30T12:25:39.895Z,2.20
2022-10-30T12:28:55.280Z,2.35
2022-10-30T12:32:04.008Z,2.05
2022-10-30T12:35:18.805Z,2.25
2022-10-30T12:38:28.629Z,1.90
2022-10-30T12:41:41.378Z,2.17
2022-10-30T12:44:49.009Z,1.83
2022-10-30T12:47:59.134Z,2.17
2022-10-30T12:51:19.758Z,2.25
2022-10-30T12:54:35.670Z,2.10
2022-10-30T12:57:48.346Z,3.20
2022-10-30T13:00:59.238Z,2.58
2022-10-30T13:04:11.221Z,2.10
2022-10-30T13:07:21.807Z,2.00
2022-10-30T13:10:31.318Z,1.75
2022-10-30T13:13:39.895Z,2.15
2022-10-30T13:16:44.307Z,2.53
2022-10-30T13:19:49.116Z,2.20
2022-10-30T13:22:59.197Z,2.45
2022-10-30T13:26:13.597Z,2.30
2022-10-30T13:29:25.821Z,3.28
2022-10-30T13:32:40.809Z,3.40
2022-10-30T13:35:50.099Z,1.92
2022-10-30T13:39:01.595Z,2.85
2022-10-30T13:42:22.406Z,2.80
2022-10-30T13:45:56.919Z,2.13
2022-10-30T13:49:15.611Z,2.28
2022-10-30T13:52:22.811Z,2.75
2022-10-30T13:55:29.919Z,3.25
2022-10-30T13:58:43.404Z,2.97
2022-10-30T14:02:01.564Z,3.40
2022-10-30T14:05:16.968Z,2.78
2022-10-30T14:08:32.396Z,2.60
2022-10-30T14:11:36.585Z,3.22
2022-10-30T14:14:49.477Z,2.55
2022-10-30T14:18:33.470Z,3.20
2022-10-30T14:21:46.053Z,3.38
2022-10-30T14:24:50.277Z,3.28
2022-10-30T14:27:58.380Z,3.30
2022-10-30T14:31:04.699Z,3.08
2022-10-30T14:34:43.056Z,3.63
2022-10-30T14:37:58.777Z,3.60
2022-10-30T14:41:36.280Z,3.83
2022-10-30T14:45:01.634Z,4.05
2022-10-30T14:48:14.435Z,4.63
2022-10-30T14:51:24.946Z,3.83
2022-10-30T14:54:35.245Z,3.42
2022-10-30T14:57:48.675Z,3.92
2022-10-30T15:00:57.457Z,4.22
2022-10-30T15:04:18.975Z,4.53
2022-10-30T15:07:34.527Z,4.80
2022-10-30T15:10:43.752Z,4.47
2022-10-30T15:13:51.687Z,5.15
2022-10-30T15:16:56.135Z,9.77
2022-10-30T15:20:02.916Z,8.88
2022-10-30T15:23:13.927Z,5.90
2022-10-30T15:26:22.041Z,6.28
2022-10-30T15:29:30.681Z,6.68
2022-10-30T15:32:34.901Z,6.85
2022-10-30T15:35:39.409Z,6.75
2022-10-30T15:38:45.051Z,8.05
2022-10-30T15:41:51.958Z,8.77
2022-10-30T15:44:56.159Z,8.73
2022-10-30T15:48:04.472Z,11.60
2022-10-30T15:51:13.925Z,6.95
2022-10-30T15:54:21.635Z,5.93
2022-10-30T15:57:57.387Z,6.88
2022-10-30T16:00:59.417Z,8.20
2022-10-30T16:04:03.919Z,7.70
2022-10-30T16:07:19.758Z,10.27
2022-10-30T16:10:28.077Z,10.15
2022-10-30T16:13:32.956Z,9.82
2022-10-30T16:16:37.128Z,10.88
2022-10-30T16:19:47.176Z,11.27
2022-10-30T16:22:51.506Z,11.50
2022-10-30T16:25:59.517Z,14.85
2022-10-30T16:29:18.694Z,22.63
2022-10-30T16:32:27.323Z,17.38
2022-10-30T16:35:31.810Z,13.90
2022-10-30T16:38:38.551Z,11.82
2022-10-30T16:41:44.846Z,12.02
2022-10-30T16:44:49.555Z,16.33
2022-10-30T16:47:59.041Z,14.35
2022-10-30T16:51:06.128Z,28.93
2022-10-30T16:54:22.247Z,88.43
2022-10-30T16:57:30.650Z,40.33
2022-10-30T17:00:36.821Z,28.85
2022-10-30T17:03:44.190Z,13.20
2022-10-30T17:06:48.409Z,9.90
2022-10-30T17:09:57.211Z,13.13
2022-10-30T17:13:31.882Z,14.57
2022-10-30T17:16:39.315Z,13.87
2022-10-30T17:19:51.459Z,15.47
2022-10-30T17:23:09.240Z,14.23
2022-10-30T17:26:15.038Z,14.90
2022-10-30T17:29:47.229Z,13.40
2022-10-30T17:32:56.241Z,11.80
2022-10-30T17:36:00.899Z,12.03
2022-10-30T17:39:06.371Z,12.53
2022-10-30T17:42:13.330Z,20.97
2022-10-30T17:45:19.751Z,28.03
2022-10-30T17:48:27.748Z,14.83
2022-10-30T17:51:32.894Z,10.83
2022-10-30T17:54:38.446Z,8.80
2022-10-30T17:57:43.239Z,7.73
2022-10-30T18:00:49.704Z,10.07
2022-10-30T18:03:56.960Z,9.43
2022-10-30T18:07:01.676Z,9.30
2022-10-30T18:10:09.728Z,8.07
2022-10-30T18:13:15.648Z,7.67
2022-10-30T18:16:22.466Z,7.93
2022-10-30T18:19:26.955Z,8.30
2022-10-30T18:22:31.186Z,9.00
2022-10-30T18:25:38.702Z,9.17
2022-10-30T18:28:43.799Z,9.60
2022-10-30T18:31:49.540Z,11.30
2022-10-30T18:34:53.749Z,10.43
2022-10-30T18:37:58.446Z,10.43
2022-10-30T18:41:02.716Z,11.03
2022-10-30T18:44:11.846Z,11.67
2022-10-30T18:47:18.656Z,10.93
2022-10-30T18:50:25.755Z,11.13
2022-10-30T18:53:34.977Z,10.60
2022-10-30T18:56:47.275Z,11.17
2022-10-30T18:59:51.900Z,11.73
2022-10-30T19:02:58.679Z,11.83
2022-10-30T19:06:03.491Z,11.30
2022-10-30T19:09:07.849Z,10.27
2022-10-30T19:12:12.659Z,11.40
2022-10-30T19:15:19.498Z,12.30
2022-10-30T19:18:26.319Z,10.70
2022-10-30T19:21:34.877Z,11.07
2022-10-30T19:24:39.179Z,10.57
2022-10-30T19:27:43.480Z,10.43
2022-10-30T19:30:50.642Z,10.90
2022-10-30T19:33:57.829Z,10.20
2022-10-30T19:37:01.945Z,10.03
2022-10-30T19:40:21.185Z,9.00
2022-10-30T19:43:25.459Z,8.43
2022-10-30T19:46:29.769Z,9.07
2022-10-30T19:49:35.419Z,10.03
2022-10-30T19:52:39.586Z,9.30
2022-10-30T19:55:45.008Z,8.53
2022-10-30T19:58:50.462Z,9.50
2022-10-30T20:01:54.850Z,10.13
2022-10-30T20:05:03.479Z,9.53
2022-10-30T20:08:12.741Z,10.63
2022-10-30T20:11:16.870Z,10.60
2022-10-30T20:14:23.797Z,10.80
2022-10-30T20:17:28.096Z,10.43
2022-10-30T20:20:37.205Z,9.97
2022-10-30T20:23:41.757Z,10.00
2022-10-30T20:26:46.308Z,9.70
2022-10-30T20:29:50.568Z,10.33
2022-10-30T20:32:55.126Z,8.70
2022-10-30T20:36:00.819Z,8.90
2022-10-30T20:39:05.203Z,9.57
2022-10-30T20:42:14.296Z,9.03
2022-10-30T20:45:21.250Z,8.90
2022-10-30T20:48:25.548Z,9.80
2022-10-30T20:51:31.939Z,10.43
2022-10-30T20:54:36.121Z,8.63
2022-10-30T20:57:40.911Z,8.77
2022-10-30T21:00:45.316Z,9.17
2022-10-30T21:03:50.739Z,8.60
2022-10-30T21:06:59.301Z,8.80
2022-10-30T21:10:03.592Z,9.93
2022-10-30T21:13:09.815Z,9.83
2022-10-30T21:16:14.637Z,10.20
2022-10-30T21:19:19.043Z,8.80
2022-10-30T21:22:24.772Z,9.50
2022-10-30T21:25:29.129Z,9.77
2022-10-30T21:28:33.536Z,9.60
2022-10-30T21:31:37.889Z,9.97
2022-10-30T21:34:42.200Z,9.70
2022-10-30T21:37:48.029Z,10.03
2022-10-30T21:40:57.202Z,9.23
2022-10-30T21:44:02.491Z,8.37
2022-10-30T21:47:06.623Z,8.47
2022-10-30T21:50:12.678Z,8.50
2022-10-30T21:53:18.688Z,8.30
2022-10-30T21:56:24.495Z,7.17
2022-10-30T21:59:28.739Z,6.37
2022-10-30T22:02:33.111Z,6.20
2022-10-30T22:05:37.349Z,5.27
2022-10-30T22:08:43.117Z,5.47
2022-10-30T22:11:47.272Z,5.50
2022-10-30T22:14:51.560Z,4.80
2022-10-30T22:17:55.718Z,5.23
2022-10-30T22:21:03.663Z,5.60
2022-10-30T22:24:10.003Z,5.20
2022-10-30T22:27:14.389Z,5.10
2022-10-30T22:30:18.729Z,5.87
2022-10-30T22:33:23.498Z,5.10
2022-10-30T22:36:30.161Z,4.67
2022-10-30T22:39:35.677Z,4.40
2022-10-30T22:42:39.906Z,4.53
2022-10-30T22:45:43.921Z,4.53
2022-10-30T22:48:48.293Z,4.10
2022-10-30T22:51:52.308Z,3.90
2022-10-30T22:54:57.907Z,4.03
2022-10-30T22:58:02.427Z,4.03
2022-10-30T23:01:12.194Z,3.50
2022-10-30T23:04:16.786Z,3.80
2022-10-30T23:07:30.164Z,4.20
2022-10-30T23:10:48.567Z,3.80
2022-10-30T23:14:03.743Z,3.90
2022-10-30T23:17:18.471Z,3.50
2022-10-30T23:20:29.314Z,3.67
2022-10-30T23:23:44.026Z,3.90
2022-10-30T23:27:01.864Z,3.63
2022-10-30T23:30:17.885Z,4.27
2022-10-30T23:33:32.781Z,3.10
2022-10-30T23:36:46.114Z,4.03
2022-10-30T23:39:53.726Z,3.43
2022-10-30T23:43:10.420Z,3.87
2022-10-30T23:46:23.567Z,3.47
2022-10-30T23:49:34.539Z,3.80
2022-10-30T23:52:44.544Z,3.43
2022-10-30T23:56:00.032Z,3.60
2022-10-30T23:59:17.414Z,3.40
